Time;durP1;ratioP1;P1;durP2;ratioP2;P2;SDS_P1;SDS_P2;PMS_P1;PMS_P2;Temp;Humidity;BMP_temperature;BMP_pressure;BME280_temperature;BME280_humidity;BME280_pressure;Samples;Min_cycle;Max_cycle;Signal;HPM_P1;HPM_P2
2024/03/22 00:01:42;;;;;;;3.05;1.17;;;20.00;43.80;;;;;;6280774;28;20075;-76
2024/03/22 00:04:43;;;;;;;3.33;1.60;;;20.00;43.80;;;;;;6283795;28;20024;-76
2024/03/22 00:07:43;;;;;;;2.35;1.60;;;20.00;43.80;;;;;;6284027;28;20096;-77
2024/03/22 00:10:44;;;;;;;6.32;1.70;;;20.00;43.90;;;;;;6284102;28;20032;-77
2024/03/22 00:13:45;;;;;;;4.05;1.70;;;20.00;44.00;;;;;;6279674;28;20028;-78
2024/03/22 00:16:46;;;;;;;3.05;1.60;;;19.90;44.20;;;;;;6286404;28;20040;-75
2024/03/22 00:19:47;;;;;;;6.07;1.50;;;19.90;44.40;;;;;;6283980;28;20025;-77
2024/03/22 00:22:48;;;;;;;3.25;1.80;;;19.90;44.60;;;;;;6282847;28;20017;-77
2024/03/22 00:25:49;;;;;;;4.13;1.92;;;19.80;44.70;;;;;;6283403;28;20025;-75
2024/03/22 00:28:51;;;;;;;4.93;1.85;;;19.90;45.50;;;;;;6283108;28;20028;-76
2024/03/22 00:31:52;;;;;;;3.65;1.75;;;19.80;45.00;;;;;;6283179;28;20448;-78
2024/03/22 00:34:52;;;;;;;3.20;1.70;;;19.70;45.00;;;;;;6266898;28;20033;-76
2024/03/22 00:37:55;;;;;;;3.20;1.80;;;19.70;45.20;;;;;;6260372;28;20039;-76
2024/03/22 00:40:56;;;;;;;6.85;2.28;;;19.70;45.50;;;;;;6284116;28;20425;-75
2024/03/22 00:43:58;;;;;;;2.55;1.55;;;19.60;45.60;;;;;;6285395;28;20190;-76
2024/03/22 00:46:59;;;;;;;6.43;1.63;;;19.60;45.80;;;;;;6266806;28;20036;-76
2024/03/22 00:50:01;;;;;;;4.18;2.00;;;19.50;46.00;;;;;;6280314;28;20072;-77
2024/03/22 00:53:03;;;;;;;10.13;1.92;;;19.40;46.10;;;;;;6255434;28;20706;-76
2024/03/22 00:56:05;;;;;;;7.45;3.08;;;19.40;46.20;;;;;;6282373;28;20047;-77
2024/03/22 00:59:06;;;;;;;3.83;1.88;;;19.40;46.20;;;;;;6272917;28;20021;-76
2024/03/22 01:02:07;;;;;;;10.13;2.05;;;19.30;46.20;;;;;;6265363;28;20099;-75
2024/03/22 01:05:08;;;;;;;1.95;1.45;;;19.30;46.30;;;;;;6284333;28;20093;-76
2024/03/22 01:08:09;;;;;;;1.30;1.17;;;19.30;46.30;;;;;;6283010;28;20040;-76
2024/03/22 01:11:10;;;;;;;2.45;1.50;;;19.20;46.30;;;;;;6283103;28;20047;-76
2024/03/22 01:14:11;;;;;;;3.35;1.50;;;19.30;46.40;;;;;;6282337;28;20051;-76
2024/03/22 01:17:12;;;;;;;4.00;1.60;;;19.20;46.50;;;;;;6282103;28;20159;-76
2024/03/22 01:20:13;;;;;;;2.90;1.30;;;19.20;46.70;;;;;;6266038;28;20073;-76
2024/03/22 01:23:14;;;;;;;3.33;1.50;;;19.10;46.70;;;;;;6282008;28;20456;-76
2024/03/22 01:26:15;;;;;;;2.78;1.70;;;19.00;46.80;;;;;;6265191;28;20743;-76
2024/03/22 01:29:16;;;;;;;3.20;1.83;;;19.00;47.00;;;;;;6282083;28;20388;-75
2024/03/22 01:32:17;;;;;;;8.57;2.35;;;18.90;47.20;;;;;;6279838;28;20350;-76
2024/03/22 01:35:18;;;;;;;3.85;1.80;;;18.90;47.40;;;;;;6265734;28;20043;-76
2024/03/22 01:38:19;;;;;;;7.63;2.15;;;19.00;47.60;;;;;;6282237;28;20451;-76
2024/03/22 01:41:22;;;;;;;5.07;1.85;;;18.90;47.80;;;;;;6281808;28;20055;-77
2024/03/22 01:44:33;;;;;;;7.00;2.20;;;18.80;48.00;;;;;;6264837;28;20073;-76
2024/03/22 01:47:35;;;;;;;3.53;1.70;;;18.70;48.20;;;;;;6282916;28;20111;-77
2024/03/22 01:50:37;;;;;;;4.93;1.90;;;18.70;48.50;;;;;;6273655;28;20096;-75
2024/03/22 01:53:38;;;;;;;2.63;1.83;;;18.60;48.60;;;;;;6270002;28;20115;-76
2024/03/22 01:56:40;;;;;;;8.68;2.28;;;18.60;48.70;;;;;;6283469;28;21413;-76
2024/03/22 01:59:46;;;;;;;4.88;1.98;;;18.50;48.70;;;;;;6281353;28;20012;-76
2024/03/22 02:02:47;;;;;;;10.05;2.25;;;18.50;48.70;;;;;;6281452;28;20027;-77
2024/03/22 02:05:47;;;;;;;8.05;2.28;;;18.50;48.80;;;;;;6282509;28;20021;-76
2024/03/22 02:08:48;;;;;;;5.38;1.92;;;18.50;48.90;;;;;;6265074;28;20028;-77
2024/03/22 02:11:50;;;;;;;6.35;2.30;;;18.40;48.90;;;;;;6255853;28;20504;-75
2024/03/22 02:14:51;;;;;;;4.00;1.90;;;18.40;49.00;;;;;;6247628;28;20207;-76
2024/03/22 02:17:52;;;;;;;3.78;1.67;;;18.40;49.10;;;;;;6280905;28;20020;-76
2024/03/22 02:20:53;;;;;;;4.15;1.67;;;18.30;49.20;;;;;;6264566;28;20124;-76
2024/03/22 02:23:54;;;;;;;4.45;1.80;;;18.30;49.40;;;;;;6268454;28;20020;-77
2024/03/22 02:26:55;;;;;;;4.82;2.47;;;18.30;49.50;;;;;;6280653;28;20127;-76
2024/03/22 02:29:56;;;;;;;5.82;2.45;;;18.20;49.40;;;;;;6280779;28;20460;-76
2024/03/22 02:32:57;;;;;;;7.88;2.13;;;18.20;49.50;;;;;;6263813;28;20436;-75
2024/03/22 02:35:58;;;;;;;8.00;2.42;;;18.20;49.50;;;;;;6279666;28;20036;-77
2024/03/22 02:38:59;;;;;;;7.07;2.38;;;18.10;49.60;;;;;;6280040;28;20025;-77
2024/03/22 02:42:01;;;;;;;7.95;2.42;;;18.10;49.60;;;;;;6280229;28;20353;-76
2024/03/22 02:45:04;;;;;;;6.32;2.47;;;18.00;49.70;;;;;;6278476;28;20028;-77
2024/03/22 02:48:06;;;;;;;3.40;1.90;;;18.10;49.80;;;;;;6279170;28;20035;-76
2024/03/22 02:51:06;;;;;;;3.97;2.03;;;18.10;50.00;;;;;;6263371;28;20457;-75
2024/03/22 02:54:07;;;;;;;3.80;2.00;;;18.00;50.10;;;;;;6275534;28;20039;-75
2024/03/22 02:57:09;;;;;;;7.43;2.03;;;18.00;50.20;;;;;;6268386;28;20032;-75
2024/03/22 03:00:11;;;;;;;2.55;1.45;;;18.00;50.50;;;;;;6262415;28;20455;-76
2024/03/22 03:03:12;;;;;;;9.52;3.10;;;17.90;50.60;;;;;;6280941;28;20016;-75
2024/03/22 03:06:13;;;;;;;7.60;2.15;;;17.90;50.80;;;;;;6279777;28;20024;-76
2024/03/22 03:09:14;;;;;;;5.78;2.20;;;17.80;50.90;;;;;;6263097;28;20090;-76
2024/03/22 03:12:15;;;;;;;9.18;2.75;;;17.80;50.90;;;;;;6263086;28;20052;-75
2024/03/22 03:15:17;;;;;;;4.13;2.25;;;17.80;50.90;;;;;;6262437;28;20032;-76
2024/03/22 03:18:18;;;;;;;7.70;2.33;;;17.80;50.80;;;;;;6279655;28;20131;-75
2024/03/22 03:21:19;;;;;;;4.97;1.85;;;17.80;50.70;;;;;;6262806;28;20027;-77
2024/03/22 03:24:19;;;;;;;5.53;2.08;;;17.80;50.80;;;;;;6282083;28;20052;-76
2024/03/22 03:27:20;;;;;;;6.40;2.25;;;17.80;50.80;;;;;;6281171;28;20032;-76
2024/03/22 03:30:22;;;;;;;13.75;2.67;;;17.80;50.80;;;;;;6279443;28;20037;-76
2024/03/22 03:33:42;;;;;;;8.90;2.10;;;17.70;50.80;;;;;;6278836;28;20028;-76
2024/03/22 03:36:44;;;;;;;3.42;2.05;;;17.70;50.80;;;;;;6261516;28;20029;-75
2024/03/22 03:39:45;;;;;;;6.68;2.28;;;17.80;50.80;;;;;;6278161;28;20542;-76
2024/03/22 03:42:46;;;;;;;2.80;2.13;;;17.70;50.80;;;;;;6278027;28;20070;-76
2024/03/22 03:45:48;;;;;;;10.18;2.55;;;17.70;51.60;;;;;;6279328;28;20020;-76
2024/03/22 03:48:50;;;;;;;3.05;2.00;;;17.60;51.00;;;;;;6279343;28;20115;-76
2024/03/22 03:51:51;;;;;;;8.15;2.25;;;17.60;51.30;;;;;;6273322;28;20383;-75
2024/03/22 03:54:53;;;;;;;3.38;1.92;;;17.60;51.30;;;;;;6265851;28;20021;-75
2024/03/22 03:57:56;;;;;;;5.65;1.80;;;17.50;51.40;;;;;;6279767;28;20111;-76
2024/03/22 04:00:56;;;;;;;10.05;2.15;;;17.60;51.50;;;;;;6279211;28;20120;-75
2024/03/22 04:03:57;;;;;;;4.47;1.88;;;17.50;52.00;;;;;;6279269;28;20019;-77
2024/03/22 04:06:58;;;;;;;5.28;1.67;;;17.50;51.40;;;;;;6272323;28;20523;-74
2024/03/22 04:10:02;;;;;;;2.95;2.00;;;17.50;51.50;;;;;;6279171;28;20382;-76
2024/03/22 04:13:04;;;;;;;5.20;1.98;;;17.40;51.50;;;;;;6280525;28;20060;-75
2024/03/22 04:16:05;;;;;;;8.32;1.92;;;17.40;51.70;;;;;;6262488;28;20112;-76
2024/03/22 04:19:06;;;;;;;7.03;2.17;;;17.30;51.70;;;;;;6278640;28;20123;-75
2024/03/22 04:22:07;;;;;;;9.00;2.35;;;17.30;51.70;;;;;;6279218;28;20028;-77
2024/03/22 04:25:08;;;;;;;7.35;2.40;;;17.30;51.70;;;;;;6279034;28;20062;-76
2024/03/22 04:28:10;;;;;;;7.10;2.42;;;17.30;51.70;;;;;;6284072;28;20353;-76
2024/03/22 04:31:11;;;;;;;4.30;2.10;;;17.30;51.70;;;;;;6285861;28;20097;-74
2024/03/22 04:34:12;;;;;;;8.57;2.03;;;17.30;51.70;;;;;;6284342;28;20091;-75
2024/03/22 04:37:13;;;;;;;4.88;1.90;;;17.20;51.70;;;;;;6285850;28;20040;-77
2024/03/22 04:40:14;;;;;;;4.38;1.90;;;17.30;51.60;;;;;;6265183;28;20100;-76
2024/03/22 04:43:16;;;;;;;8.25;2.15;;;17.30;51.70;;;;;;6281708;28;20021;-76
2024/03/22 04:46:17;;;;;;;3.05;1.80;;;17.30;51.70;;;;;;6283803;28;20031;-76
2024/03/22 04:49:17;;;;;;;7.88;2.28;;;17.20;51.80;;;;;;6283692;28;20020;-76
2024/03/22 04:52:51;;;;;;;5.35;2.42;;;17.30;51.80;;;;;;6285322;28;20081;-76
2024/03/22 04:55:52;;;;;;;9.05;2.17;;;17.20;51.80;;;;;;6268656;28;20033;-75
2024/03/22 04:58:57;;;;;;;7.18;2.00;;;17.20;51.80;;;;;;6274923;28;20055;-77
2024/03/22 05:01:58;;;;;;;4.75;2.10;;;17.20;51.80;;;;;;6284800;28;20088;-75
2024/03/22 05:04:59;;;;;;;5.70;2.20;;;17.10;51.80;;;;;;6247702;28;20024;-76
2024/03/22 05:08:01;;;;;;;7.25;1.92;;;17.10;51.90;;;;;;6249344;28;20107;-77
2024/03/22 05:11:03;;;;;;;4.63;2.33;;;17.10;52.00;;;;;;6283549;28;20021;-75
2024/03/22 05:14:05;;;;;;;7.90;1.98;;;17.10;52.30;;;;;;6282670;28;20061;-76
2024/03/22 05:17:06;;;;;;;3.70;1.70;;;17.00;52.30;;;;;;6266048;28;20063;-75
2024/03/22 05:20:10;;;;;;;6.45;2.38;;;16.90;52.40;;;;;;6282449;28;20061;-75
2024/03/22 05:23:11;;;;;;;5.45;2.40;;;16.90;52.50;;;;;;6284541;28;20027;-76
2024/03/22 05:26:14;;;;;;;8.23;2.67;;;17.00;52.50;;;;;;6282516;28;20013;-76
2024/03/22 05:29:15;;;;;;;9.50;2.72;;;16.90;52.50;;;;;;6281763;28;20044;-76
2024/03/22 05:32:16;;;;;;;3.00;1.75;;;16.90;52.50;;;;;;6281842;28;21481;-75
2024/03/22 05:35:18;;;;;;;5.55;2.65;;;16.90;52.60;;;;;;6283167;28;20032;-76
2024/03/22 05:38:20;;;;;;;9.30;2.90;;;16.90;52.60;;;;;;6247939;28;20028;-76
2024/03/22 05:41:21;;;;;;;7.85;2.08;;;17.00;52.70;;;;;;6248626;28;20138;-77
2024/03/22 05:44:22;;;;;;;16.30;2.97;;;16.90;52.70;;;;;;6281443;28;20473;-76
2024/03/22 05:47:26;;;;;;;4.07;1.92;;;16.90;52.80;;;;;;6264429;28;20036;-75
2024/03/22 05:50:28;;;;;;;8.07;2.78;;;16.90;53.00;;;;;;6276763;28;20028;-76
2024/03/22 05:53:29;;;;;;;9.40;2.33;;;16.90;53.10;;;;;;6282854;28;20101;-77
2024/03/22 05:56:30;;;;;;;20.85;2.60;;;16.90;53.10;;;;;;6283085;28;20115;-76
2024/03/22 05:59:31;;;;;;;11.10;3.20;;;16.90;53.00;;;;;;6256551;28;20025;-77
2024/03/22 06:02:32;;;;;;;5.50;2.30;;;17.00;52.90;;;;;;6278748;28;20499;-77
2024/03/22 06:05:33;;;;;;;8.35;2.47;;;17.00;52.80;;;;;;6283419;28;20020;-75
2024/03/22 06:08:35;;;;;;;6.35;2.03;;;17.10;52.80;;;;;;6281483;28;20136;-76
2024/03/22 06:11:35;;;;;;;5.10;1.63;;;17.10;52.60;;;;;;6281349;28;20115;-77
2024/03/22 06:14:37;;;;;;;3.47;1.92;;;17.20;52.50;;;;;;6280586;28;20034;-77
2024/03/22 06:17:37;;;;;;;4.10;2.00;;;17.20;52.40;;;;;;6263530;28;20039;-77
2024/03/22 06:20:40;;;;;;;7.53;2.22;;;17.20;52.30;;;;;;6280241;28;20516;-77
2024/03/22 06:23:52;;;;;;;3.03;1.90;;;17.20;52.10;;;;;;6282449;28;20090;-77
2024/03/22 06:26:54;;;;;;;6.30;2.47;;;17.20;52.00;;;;;;6282412;28;20119;-76
2024/03/22 06:29:55;;;;;;;8.43;2.13;;;17.20;52.00;;;;;;6247302;28;20047;-76
2024/03/22 06:32:56;;;;;;;4.30;1.80;;;17.20;51.90;;;;;;6278015;28;20032;-76
2024/03/22 06:35:57;;;;;;;6.18;2.20;;;17.40;52.00;;;;;;6282830;28;20035;-76
2024/03/22 06:39:04;;;;;;;7.22;2.80;;;17.30;51.80;;;;;;6280734;28;20033;-77
2024/03/22 06:42:05;;;;;;;8.18;2.22;;;17.40;51.70;;;;;;6263892;28;20659;-76
2024/03/22 06:45:07;;;;;;;6.93;2.72;;;17.50;51.60;;;;;;6280399;28;20020;-75
2024/03/22 06:48:09;;;;;;;6.63;2.20;;;17.60;51.50;;;;;;6264207;28;20036;-76
2024/03/22 06:51:10;;;;;;;5.28;2.47;;;17.60;51.30;;;;;;6280330;28;20025;-75
2024/03/22 06:54:11;;;;;;;6.88;2.42;;;17.60;51.30;;;;;;6279969;28;20782;-75
2024/03/22 06:57:12;;;;;;;5.07;2.30;;;17.70;51.40;;;;;;6276987;28;20021;-76
2024/03/22 07:00:15;;;;;;;8.65;2.72;;;17.70;51.30;;;;;;6263356;28;20134;-77
2024/03/22 07:03:17;;;;;;;9.43;2.58;;;17.80;51.30;;;;;;6280273;28;20094;-77
2024/03/22 07:06:20;;;;;;;9.57;2.03;;;17.80;51.20;;;;;;6263698;28;20111;-75
2024/03/22 07:09:21;;;;;;;4.10;2.50;;;17.80;50.90;;;;;;6281391;28;20631;-77
2024/03/22 07:12:22;;;;;;;4.18;2.33;;;17.80;50.90;;;;;;6281535;28;20069;-75
2024/03/22 07:15:24;;;;;;;4.93;2.42;;;17.70;51.00;;;;;;6263437;28;20638;-76
2024/03/22 07:18:26;;;;;;;7.28;2.22;;;17.60;51.00;;;;;;6281113;28;20021;-75
2024/03/22 07:21:27;;;;;;;6.07;2.40;;;17.50;51.20;;;;;;6282260;28;20481;-77
2024/03/22 07:24:28;;;;;;;7.53;2.95;;;17.40;51.60;;;;;;6263747;28;20086;-76
2024/03/22 07:27:31;;;;;;;7.72;2.40;;;17.40;51.60;;;;;;6262969;28;20369;-77
2024/03/22 07:30:32;;;;;;;4.65;2.20;;;17.30;51.60;;;;;;6247058;28;20493;-76
2024/03/22 07:33:33;;;;;;;3.70;2.15;;;17.30;51.60;;;;;;6263486;28;20025;-77
2024/03/22 07:36:39;;;;;;;4.55;2.17;;;17.30;51.50;;;;;;6280224;28;20028;-78
2024/03/22 07:39:41;;;;;;;4.20;2.20;;;17.30;51.40;;;;;;6279955;28;20035;-77
2024/03/22 07:42:43;;;;;;;6.22;2.00;;;17.40;51.30;;;;;;6278939;28;20027;-77
2024/03/22 07:45:44;;;;;;;7.65;2.50;;;17.40;51.10;;;;;;6262918;28;20033;-77
2024/03/22 07:48:45;;;;;;;10.63;3.15;;;17.50;51.00;;;;;;6278892;28;20025;-77
2024/03/22 07:51:47;;;;;;;7.88;2.42;;;17.60;50.90;;;;;;6280425;28;20119;-76
2024/03/22 07:54:48;;;;;;;11.27;3.17;;;17.60;50.80;;;;;;6270126;28;20021;-76
2024/03/22 07:57:51;;;;;;;18.63;3.05;;;17.70;50.70;;;;;;6268488;28;20551;-77
2024/03/22 08:00:51;;;;;;;5.95;2.28;;;17.70;50.60;;;;;;6263055;28;20063;-77
2024/03/22 08:03:54;;;;;;;8.63;2.08;;;17.80;50.50;;;;;;6286617;28;20527;-77
2024/03/22 08:06:54;;;;;;;7.60;2.55;;;17.80;50.50;;;;;;6268191;28;20027;-76
2024/03/22 08:09:58;;;;;;;6.82;2.25;;;17.90;50.40;;;;;;6284859;28;20089;-77
2024/03/22 08:13:03;;;;;;;6.90;2.78;;;18.00;50.30;;;;;;6284977;28;20059;-77
2024/03/22 08:16:06;;;;;;;11.70;2.67;;;18.10;50.10;;;;;;6284588;28;20664;-77
2024/03/22 08:19:08;;;;;;;10.85;3.38;;;18.20;50.00;;;;;;6286165;28;20008;-77
2024/03/22 08:22:09;;;;;;;11.07;2.83;;;18.30;49.80;;;;;;6285314;28;20381;-74
2024/03/22 08:25:10;;;;;;;6.35;2.75;;;18.40;49.60;;;;;;6294817;28;20080;-76
2024/03/22 08:28:11;;;;;;;8.50;2.60;;;18.50;49.30;;;;;;6258823;28;20150;-75
2024/03/22 08:31:12;;;;;;;7.03;2.53;;;18.70;49.20;;;;;;6284491;28;20024;-74
2024/03/22 08:34:13;;;;;;;7.05;2.25;;;18.80;49.00;;;;;;6282519;28;20066;-77
2024/03/22 08:37:14;;;;;;;7.35;2.55;;;18.90;48.70;;;;;;6285124;28;20089;-77
2024/03/22 08:40:16;;;;;;;6.57;2.53;;;19.00;48.60;;;;;;6285216;28;20092;-77
2024/03/22 08:43:17;;;;;;;7.97;3.25;;;19.20;48.40;;;;;;6283814;28;20080;-77
2024/03/22 08:46:18;;;;;;;4.90;2.25;;;19.40;48.00;;;;;;6285786;28;20024;-76
2024/03/22 08:49:19;;;;;;;4.90;2.00;;;19.50;47.60;;;;;;6284699;28;20031;-77
2024/03/22 08:52:20;;;;;;;8.88;2.80;;;19.60;47.30;;;;;;6283965;28;20108;-77
2024/03/22 08:55:21;;;;;;;6.78;1.95;;;19.70;47.20;;;;;;6265995;28;20037;-77
2024/03/22 08:58:22;;;;;;;3.40;1.90;;;19.90;46.60;;;;;;6282969;28;20008;-77
2024/03/22 09:01:23;;;;;;;9.98;2.58;;;20.10;46.40;;;;;;6282558;28;20345;-77
2024/03/22 09:04:24;;;;;;;14.68;2.42;;;20.20;46.10;;;;;;6249372;28;20028;-76
2024/03/22 09:07:25;;;;;;;7.55;2.20;;;20.40;45.50;;;;;;6283254;28;20074;-78
2024/03/22 09:10:26;;;;;;;3.45;1.58;;;20.50;45.40;;;;;;6266149;28;20544;-78
2024/03/22 09:13:27;;;;;;;7.70;2.55;;;20.60;44.90;;;;;;6282959;28;20031;-77
2024/03/22 09:16:28;;;;;;;5.47;2.33;;;20.60;44.70;;;;;;6282482;28;20064;-78
2024/03/22 09:19:29;;;;;;;11.48;3.03;;;20.60;44.60;;;;;;6266122;28;20124;-77
2024/03/22 09:22:32;;;;;;;10.05;2.47;;;20.60;44.70;;;;;;6269169;28;20030;-77
2024/03/22 09:25:33;;;;;;;10.55;2.20;;;20.70;44.80;;;;;;6282619;28;20021;-77
2024/03/22 09:28:35;;;;;;;13.82;2.50;;;20.90;44.40;;;;;;6282317;28;20450;-77
2024/03/22 09:31:36;;;;;;;8.13;2.55;;;21.00;44.20;;;;;;6281713;28;20025;-77
2024/03/22 09:34:36;;;;;;;4.20;2.40;;;21.30;44.10;;;;;;6265829;28;20642;-78
2024/03/22 09:37:38;;;;;;;8.15;2.63;;;21.30;43.70;;;;;;6282231;28;20024;-78
2024/03/22 09:40:42;;;;;;;14.20;3.38;;;21.40;43.40;;;;;;6281480;28;20040;-77
2024/03/22 09:43:46;;;;;;;6.90;2.25;;;21.50;43.00;;;;;;6281945;28;20167;-76
2024/03/22 09:46:50;;;;;;;5.53;2.47;;;21.50;43.10;;;;;;6284075;28;20044;-77
2024/03/22 09:49:53;;;;;;;9.48;2.75;;;21.60;42.80;;;;;;6282824;28;20106;-75
2024/03/22 09:52:57;;;;;;;6.28;2.72;;;21.80;42.60;;;;;;6284558;28;20035;-77
2024/03/22 09:56:02;;;;;;;4.80;2.10;;;21.80;42.70;;;;;;6276878;28;20097;-76
2024/03/22 09:59:08;;;;;;;7.18;2.22;;;21.70;42.50;;;;;;6264686;28;20441;-76
2024/03/22 10:02:14;;;;;;;8.38;3.08;;;22.00;42.30;;;;;;6283217;28;20029;-75
2024/03/22 10:05:17;;;;;;;9.98;4.05;;;22.10;42.10;;;;;;6277091;28;20569;-78
2024/03/22 10:08:18;;;;;;;8.30;4.55;;;22.20;41.70;;;;;;6265879;28;20024;-77
2024/03/22 10:11:18;;;;;;;4.60;2.33;;;22.30;41.40;;;;;;6282090;28;20112;-76
2024/03/22 10:14:19;;;;;;;9.27;2.47;;;22.40;41.60;;;;;;6276697;28;20484;-79
2024/03/22 10:17:20;;;;;;;7.63;1.73;;;22.40;40.70;;;;;;6282050;28;20020;-78
2024/03/22 10:20:21;;;;;;;4.43;1.77;;;22.30;40.50;;;;;;6282307;28;20218;-77
2024/03/22 10:23:22;;;;;;;3.83;1.70;;;22.40;40.60;;;;;;6284232;28;20021;-78
2024/03/22 10:26:23;;;;;;;7.93;1.92;;;22.40;40.10;;;;;;6281733;28;20039;-79
2024/03/22 10:29:25;;;;;;;6.10;1.83;;;22.50;40.20;;;;;;6273419;28;20140;-80
2024/03/22 10:32:27;;;;;;;5.38;1.73;;;22.50;39.90;;;;;;6281201;28;20086;-77
2024/03/22 10:35:28;;;;;;;9.23;2.85;;;22.60;39.60;;;;;;6279381;28;20091;-78
2024/03/22 10:38:32;;;;;;;5.55;2.17;;;22.60;39.60;;;;;;6281205;28;20028;-77
2024/03/22 10:41:33;;;;;;;10.85;3.25;;;22.70;39.20;;;;;;6282176;28;20024;-77
2024/03/22 10:44:34;;;;;;;4.47;1.70;;;22.90;38.60;;;;;;6281049;28;20062;-77
2024/03/22 10:47:37;;;;;;;7.18;1.80;;;23.10;38.10;;;;;;6264229;28;20034;-74
2024/03/22 10:50:40;;;;;;;3.08;1.95;;;23.30;37.70;;;;;;6282473;28;20121;-78
2024/03/22 10:53:45;;;;;;;6.85;2.55;;;23.60;37.60;;;;;;6259535;28;20025;-79
2024/03/22 10:56:47;;;;;;;7.57;3.00;;;23.90;36.40;;;;;;6282505;28;20075;-77
2024/03/22 10:59:48;;;;;;;8.57;2.60;;;24.30;35.90;;;;;;6263619;28;20020;-77
2024/03/22 11:02:53;;;;;;;4.70;2.28;;;24.50;35.70;;;;;;6280287;28;20031;-79
2024/03/22 11:05:58;;;;;;;6.05;2.00;;;24.90;35.20;;;;;;6263879;28;20237;-78
2024/03/22 11:09:04;;;;;;;4.95;2.10;;;25.20;34.80;;;;;;6264914;28;20032;-78
2024/03/22 11:12:06;;;;;;;3.85;1.45;;;25.60;34.00;;;;;;6280815;28;20024;-77
2024/03/22 11:15:10;;;;;;;3.65;2.00;;;25.80;33.60;;;;;;6281354;28;20090;-79
2024/03/22 11:18:12;;;;;;;3.10;1.60;;;26.10;32.80;;;;;;6265171;28;20105;-78
2024/03/22 11:21:15;;;;;;;4.88;1.75;;;26.30;32.50;;;;;;6264479;28;20052;-77
2024/03/22 11:24:18;;;;;;;4.88;1.40;;;26.60;32.00;;;;;;6283128;28;20127;-78
2024/03/22 11:27:21;;;;;;;8.00;1.85;;;26.70;31.00;;;;;;6281759;28;20032;-79
2024/03/22 11:30:25;;;;;;;4.72;1.75;;;26.80;30.00;;;;;;6264556;28;20040;-78
2024/03/22 11:33:27;;;;;;;1.35;1.08;;;26.90;29.60;;;;;;6263502;28;20105;-78
2024/03/22 11:36:29;;;;;;;1.67;1.10;;;27.10;29.00;;;;;;6263660;28;20114;-78
2024/03/22 11:39:34;;;;;;;3.60;1.10;;;27.30;28.70;;;;;;6284259;28;20020;-77
2024/03/22 11:42:37;;;;;;;2.17;1.10;;;27.50;28.80;;;;;;6269014;28;20016;-78
2024/03/22 11:45:38;;;;;;;1.73;0.88;;;27.80;27.90;;;;;;6286710;28;20024;-78
2024/03/22 11:48:41;;;;;;;3.53;1.40;;;28.20;27.60;;;;;;6285322;28;20108;-77
2024/03/22 11:51:45;;;;;;;3.00;1.27;;;28.50;26.50;;;;;;6257691;28;20040;-78
2024/03/22 11:54:52;;;;;;;6.32;3.28;;;28.80;26.10;;;;;;6268910;28;20051;-78
2024/03/22 11:58:00;;;;;;;6.43;2.72;;;29.20;25.00;;;;;;6286103;28;20020;-76
2024/03/22 12:01:02;;;;;;;3.13;1.65;;;29.50;24.50;;;;;;6283510;28;20148;-77
2024/03/22 12:04:03;;;;;;;3.97;2.10;;;29.70;24.10;;;;;;6261110;28;20047;-78
2024/03/22 12:07:04;;;;;;;6.75;2.75;;;30.00;23.90;;;;;;6263804;28;20088;-78
2024/03/22 12:10:07;;;;;;;6.45;2.75;;;30.10;23.40;;;;;;6260464;28;20027;-77
2024/03/22 12:13:07;;;;;;;5.05;1.20;;;30.50;22.80;;;;;;6269142;28;20013;-77
2024/03/22 12:16:33;;;;;;;3.53;1.30;;;30.80;22.90;;;;;;6281119;28;20021;-76
2024/03/22 12:19:34;;;;;;;4.15;1.55;;;30.90;22.10;;;;;;6285941;28;20054;-77
2024/03/22 12:22:35;;;;;;;2.40;1.17;;;31.10;22.30;;;;;;6267501;28;20091;-77
2024/03/22 12:25:36;;;;;;;3.63;1.20;;;31.60;22.40;;;;;;6280458;28;20154;-77
2024/03/22 12:28:37;;;;;;;4.28;1.30;;;32.30;22.10;;;;;;6284763;28;20036;-78
2024/03/22 12:31:38;;;;;;;3.55;1.10;;;33.00;21.40;;;;;;6279218;28;20028;-76
2024/03/22 12:34:39;;;;;;;2.13;0.95;;;33.50;20.40;;;;;;6285671;28;20020;-77
2024/03/22 12:37:40;;;;;;;2.10;0.93;;;33.90;20.00;;;;;;6285592;28;20052;-77
2024/03/22 12:40:41;;;;;;;5.75;1.17;;;34.40;19.50;;;;;;6267463;28;20021;-78
2024/03/22 12:43:43;;;;;;;3.83;1.15;;;35.10;19.10;;;;;;6267028;28;20036;-78
2024/03/22 12:46:44;;;;;;;1.13;0.73;;;35.80;18.40;;;;;;6280580;28;20013;-76
2024/03/22 12:49:45;;;;;;;5.18;1.42;;;36.10;17.70;;;;;;6284127;28;20197;-77
2024/03/22 12:52:47;;;;;;;3.40;1.15;;;36.20;17.40;;;;;;6285387;28;20029;-75
2024/03/22 12:55:48;;;;;;;3.50;0.80;;;36.50;17.20;;;;;;6283095;28;20110;-76
2024/03/22 12:58:49;;;;;;;2.55;1.33;;;37.10;17.50;;;;;;6283088;28;20480;-77
2024/03/22 13:01:50;;;;;;;1.95;1.05;;;37.60;16.20;;;;;;6283153;28;20025;-77
2024/03/22 13:04:53;;;;;;;2.92;1.23;;;37.50;15.10;;;;;;6267232;28;20048;-78
2024/03/22 13:07:57;;;;;;;1.45;0.77;;;36.90;15.30;;;;;;6266911;28;20043;-77
2024/03/22 13:10:58;;;;;;;1.15;0.60;;;36.30;15.20;;;;;;6283573;28;20029;-77
2024/03/22 13:14:00;;;;;;;5.63;1.13;;;36.10;15.60;;;;;;6282398;28;20089;-77
2024/03/22 13:17:01;;;;;;;1.70;0.90;;;36.40;16.00;;;;;;6265749;28;20029;-77
2024/03/22 13:20:09;;;;;;;1.67;0.80;;;37.00;15.80;;;;;;6284648;28;20036;-77
2024/03/22 13:23:20;;;;;;;1.33;0.70;;;37.60;15.10;;;;;;6285424;28;20610;-76
2024/03/22 13:26:21;;;;;;;1.55;0.90;;;38.00;14.90;;;;;;6256056;28;20074;-77
2024/03/22 13:29:22;;;;;;;3.28;0.75;;;38.30;14.50;;;;;;6275558;28;20017;-77
2024/03/22 13:32:23;;;;;;;4.95;0.95;;;38.20;14.30;;;;;;6278627;28;20186;-78
2024/03/22 13:35:24;;;;;;;1.33;0.73;;;38.20;14.20;;;;;;6266514;28;20043;-76
2024/03/22 13:38:24;;;;;;;1.92;0.90;;;38.30;14.00;;;;;;6283040;28;20062;-78
2024/03/22 13:41:25;;;;;;;2.92;0.90;;;38.00;13.90;;;;;;6262423;28;20025;-77
2024/03/22 13:44:34;;;;;;;1.50;0.80;;;37.00;14.50;;;;;;6282544;28;20031;-78
2024/03/22 13:47:37;;;;;;;1.70;1.20;;;35.70;15.20;;;;;;6265965;28;20036;-76
2024/03/22 13:50:39;;;;;;;9.60;1.15;;;34.60;15.90;;;;;;6284480;28;20032;-77
2024/03/22 13:53:39;;;;;;;2.03;0.90;;;33.40;16.80;;;;;;6284755;28;20539;-77
2024/03/22 13:56:41;;;;;;;1.95;1.00;;;32.40;17.70;;;;;;6284617;28;20043;-77
2024/03/22 14:04:11;;;;;;;0.93;0.70;;;30.60;19.20;;;;;;6268522;28;20044;-77
2024/03/22 14:07:13;;;;;;;0.95;0.70;;;29.70;19.50;;;;;;6261237;28;20036;-77
2024/03/22 14:10:17;;;;;;;11.88;1.10;;;29.20;19.60;;;;;;6257951;28;20067;-77
2024/03/22 14:13:18;;;;;;;2.15;0.93;;;28.80;19.80;;;;;;6281823;28;20020;-76
2024/03/22 14:16:19;;;;;;;0.93;0.80;;;28.40;20.00;;;;;;6265617;28;20107;-77
2024/03/22 14:19:20;;;;;;;2.05;0.82;;;28.10;20.10;;;;;;6283884;28;20438;-77
2024/03/22 14:22:22;;;;;;;5.57;1.00;;;27.90;20.40;;;;;;6283970;28;20469;-77
2024/03/22 14:25:23;;;;;;;2.08;0.70;;;27.80;20.60;;;;;;6283351;28;20032;-77
2024/03/22 14:28:24;;;;;;;6.15;1.05;;;27.70;20.70;;;;;;6265850;28;20249;-77
2024/03/22 14:31:25;;;;;;;6.15;1.30;;;27.50;20.60;;;;;;6279937;28;20027;-76
2024/03/22 14:34:27;;;;;;;0.80;0.77;;;27.40;20.70;;;;;;6281965;28;20056;-76
2024/03/22 14:37:29;;;;;;;3.42;1.02;;;27.30;21.00;;;;;;6283262;28;20021;-77
2024/03/22 14:40:36;;;;;;;4.30;1.00;;;27.20;21.40;;;;;;6283216;28;20020;-78
2024/03/22 14:43:37;;;;;;;5.95;1.38;;;27.20;21.80;;;;;;6265443;28;20032;-78
2024/03/22 14:46:38;;;;;;;5.93;1.10;;;27.10;22.10;;;;;;6281558;28;20111;-78
2024/03/22 14:49:39;;;;;;;7.40;1.08;;;27.10;22.50;;;;;;6281308;28;20456;-77
2024/03/22 14:52:40;;;;;;;1.50;0.80;;;27.00;22.60;;;;;;6257672;28;20112;-76
2024/03/22 14:56:21;;;;;;;4.00;1.55;;;27.00;22.60;;;;;;6272172;28;20028;-76
2024/03/22 14:59:22;;;;;;;2.33;0.90;;;27.00;22.70;;;;;;6269947;28;20024;-77
2024/03/22 15:02:27;;;;;;;1.98;0.90;;;27.00;22.90;;;;;;6283125;28;20472;-78
2024/03/22 15:05:30;;;;;;;1.85;1.10;;;26.90;23.00;;;;;;6264918;28;20417;-78
2024/03/22 15:08:32;;;;;;;2.55;1.40;;;26.90;22.80;;;;;;6281376;28;20043;-78
2024/03/22 15:11:33;;;;;;;4.65;1.20;;;26.90;22.80;;;;;;6282748;28;20029;-78
2024/03/22 15:14:34;;;;;;;8.02;1.02;;;26.80;22.80;;;;;;6291346;28;20019;-77
2024/03/22 15:17:35;;;;;;;1.42;0.75;;;26.80;22.90;;;;;;6272982;28;20017;-77
2024/03/22 15:20:38;;;;;;;5.00;0.95;;;26.80;22.90;;;;;;6289715;28;20024;-77
2024/03/22 15:23:40;;;;;;;1.10;0.80;;;26.70;23.00;;;;;;6285889;28;20096;-77
2024/03/22 15:26:41;;;;;;;3.90;1.17;;;26.70;23.10;;;;;;6290311;28;20887;-76
2024/03/22 15:29:44;;;;;;;3.03;1.02;;;26.70;23.10;;;;;;6267932;28;20509;-76
2024/03/22 15:32:45;;;;;;;2.75;0.90;;;26.70;23.00;;;;;;6272616;28;20024;-77
2024/03/22 15:35:49;;;;;;;2.70;0.80;;;26.70;23.00;;;;;;6291054;28;20012;-77
2024/03/22 15:38:50;;;;;;;7.50;1.17;;;26.70;23.10;;;;;;6260942;28;20579;-77
2024/03/22 15:41:54;;;;;;;5.70;2.03;;;26.70;23.30;;;;;;6288945;28;20012;-77
2024/03/22 15:44:55;;;;;;;5.28;0.82;;;26.70;23.40;;;;;;6283937;28;20039;-77
2024/03/22 15:47:56;;;;;;;1.58;0.80;;;26.60;23.40;;;;;;6285843;28;20021;-76
2024/03/22 15:50:57;;;;;;;2.75;1.13;;;26.60;23.60;;;;;;6282410;28;20602;-76